LFPM 262300Z AUTO 18002KT 6000 NSC 14/13 Q1020

Les avions qui composent notre flotte

Piper PA28 Archer II

Idéal pour les voyages, équipé RNAV

F-GHJT


F-GHJT Planche